createdAt,value
2019-03-20T00:00:57.190Z,5.40
2019-03-20T00:01:57.192Z,5.20
2019-03-20T00:02:57.163Z,5.40
2019-03-20T00:03:57.194Z,5.20
2019-03-20T00:04:57.139Z,4.50
2019-03-20T00:05:57.146Z,4.80
2019-03-20T00:06:57.121Z,5.20
2019-03-20T00:07:57.295Z,5.00
2019-03-20T00:08:57.104Z,4.80
2019-03-20T00:09:57.105Z,4.80
2019-03-20T00:10:57.083Z,4.80
2019-03-20T00:11:57.087Z,5.70
2019-03-20T00:12:57.078Z,4.90
2019-03-20T00:13:57.064Z,5.70
2019-03-20T00:14:57.056Z,5.00
2019-03-20T00:15:57.056Z,5.20
2019-03-20T00:16:57.028Z,7.60
2019-03-20T00:17:57.006Z,7.70
2019-03-20T00:18:57.019Z,6.80
2019-03-20T00:19:57.022Z,7.00
2019-03-20T00:20:56.994Z,8.10
2019-03-20T00:21:56.969Z,7.80
2019-03-20T00:22:56.954Z,6.30
2019-03-20T00:23:56.944Z,6.20
2019-03-20T00:24:56.946Z,6.30
2019-03-20T00:25:56.948Z,5.90
2019-03-20T00:26:56.977Z,6.30
2019-03-20T00:27:56.912Z,5.70
2019-03-20T00:28:56.895Z,5.60
2019-03-20T00:29:56.887Z,6.10
2019-03-20T00:30:56.898Z,6.20
2019-03-20T00:31:56.874Z,5.80
2019-03-20T00:32:56.856Z,5.20
2019-03-20T00:33:56.840Z,4.80
2019-03-20T00:35:00.878Z,5.10
2019-03-20T00:35:56.817Z,4.90
2019-03-20T00:36:56.865Z,4.60
2019-03-20T00:37:56.838Z,4.50
2019-03-20T00:38:56.787Z,4.90
2019-03-20T00:39:56.790Z,4.80
2019-03-20T00:40:56.774Z,4.30
2019-03-20T00:41:56.765Z,4.50
2019-03-20T00:42:56.769Z,4.60
2019-03-20T00:43:56.748Z,4.50
2019-03-20T00:44:56.753Z,4.60
2019-03-20T00:45:56.718Z,4.20
2019-03-20T00:46:56.771Z,4.80
2019-03-20T00:47:56.721Z,4.70
2019-03-20T00:48:56.691Z,4.40
2019-03-20T00:49:58.115Z,4.50
2019-03-20T00:50:56.666Z,4.40
2019-03-20T00:51:56.675Z,4.20
2019-03-20T00:52:56.670Z,4.60
2019-03-20T00:53:56.646Z,4.00
2019-03-20T00:54:56.628Z,4.30
2019-03-20T00:55:56.620Z,4.20
2019-03-20T00:56:56.600Z,4.30
2019-03-20T00:57:56.645Z,4.30
2019-03-20T00:58:56.599Z,4.40
2019-03-20T00:59:56.568Z,4.00
2019-03-20T01:00:56.562Z,3.90
2019-03-20T01:01:56.560Z,4.30
2019-03-20T01:02:56.570Z,3.70
2019-03-20T01:03:56.524Z,3.70
2019-03-20T01:04:56.516Z,3.80
2019-03-20T01:18:32.881Z,4.10
2019-03-20T01:19:32.588Z,3.80
2019-03-20T01:20:32.593Z,3.80
2019-03-20T01:21:32.571Z,4.10
2019-03-20T01:22:32.567Z,4.30
2019-03-20T01:23:32.549Z,4.10
2019-03-20T01:24:32.547Z,4.20
2019-03-20T01:25:34.992Z,4.80
2019-03-20T01:26:32.511Z,4.30
2019-03-20T01:27:32.502Z,4.50
2019-03-20T01:28:32.494Z,4.30
2019-03-20T01:29:32.488Z,4.30
2019-03-20T01:30:32.479Z,4.10
2019-03-20T01:31:32.495Z,3.80
2019-03-20T01:32:32.496Z,4.60
2019-03-20T01:33:32.458Z,4.30
2019-03-20T01:34:32.469Z,4.20
2019-03-20T01:35:32.429Z,4.60
2019-03-20T01:36:32.414Z,4.70
2019-03-20T01:37:32.426Z,4.00
2019-03-20T01:38:32.386Z,4.30
2019-03-20T01:39:32.375Z,4.00
2019-03-20T01:40:32.392Z,4.10
2019-03-20T01:41:38.097Z,3.80
2019-03-20T01:42:33.381Z,3.70
2019-03-20T01:43:32.337Z,4.00
2019-03-20T01:44:32.323Z,4.10
2019-03-20T01:45:32.312Z,4.40
2019-03-20T01:46:32.330Z,4.20
2019-03-20T01:47:32.314Z,3.80
2019-03-20T01:48:32.310Z,4.00
2019-03-20T01:49:32.271Z,3.60
2019-03-20T01:50:32.261Z,4.30
2019-03-20T01:51:32.276Z,3.90
2019-03-20T01:52:32.237Z,4.50
2019-03-20T01:53:32.261Z,4.10
2019-03-20T01:54:32.224Z,4.20
2019-03-20T01:55:32.206Z,4.40
2019-03-20T01:56:32.212Z,3.70
2019-03-20T01:57:32.191Z,4.40
2019-03-20T01:58:32.175Z,4.40
2019-03-20T01:59:32.204Z,4.70
2019-03-20T02:00:32.168Z,4.40
2019-03-20T02:01:32.141Z,4.80
2019-03-20T02:02:32.141Z,4.40
2019-03-20T02:03:32.135Z,4.30
2019-03-20T02:04:32.112Z,4.80
2019-03-20T02:05:36.281Z,4.10
2019-03-20T02:06:32.124Z,4.40
2019-03-20T02:07:32.085Z,4.70
2019-03-20T02:08:32.074Z,4.60
2019-03-20T02:09:32.068Z,4.80
2019-03-20T02:10:32.053Z,5.10
2019-03-20T02:11:32.065Z,4.30
2019-03-20T02:12:32.035Z,4.70
2019-03-20T02:13:32.041Z,4.60
2019-03-20T02:14:32.019Z,4.60
2019-03-20T02:15:38.608Z,4.70
2019-03-20T02:16:33.023Z,5.00
2019-03-20T02:17:31.972Z,4.60
2019-03-20T02:18:31.994Z,4.60
2019-03-20T02:19:31.973Z,5.00
2019-03-20T02:20:32.001Z,4.80
2019-03-20T02:21:31.939Z,5.00
2019-03-20T02:22:31.948Z,4.50
2019-03-20T02:23:31.909Z,4.50
2019-03-20T02:24:31.911Z,4.80
2019-03-20T02:25:32.524Z,4.70
2019-03-20T02:26:31.891Z,4.80
2019-03-20T02:27:31.877Z,4.80
2019-03-20T02:28:31.913Z,4.70
2019-03-20T02:29:31.869Z,4.60
2019-03-20T02:30:31.861Z,5.00
2019-03-20T02:31:31.832Z,4.90
2019-03-20T02:32:31.815Z,5.10
2019-03-20T02:33:31.818Z,4.80
2019-03-20T02:34:31.823Z,5.70
2019-03-20T02:35:31.808Z,5.30
2019-03-20T02:36:31.778Z,5.30
2019-03-20T02:37:31.785Z,5.50
2019-03-20T02:38:31.759Z,4.90
2019-03-20T02:39:31.833Z,5.10
2019-03-20T02:40:31.768Z,4.80
2019-03-20T02:41:31.744Z,6.20
2019-03-20T02:42:31.718Z,6.70
2019-03-20T02:43:31.711Z,6.70
2019-03-20T02:44:31.692Z,6.70
2019-03-20T02:45:31.679Z,6.40
2019-03-20T02:46:31.696Z,6.60
2019-03-20T02:47:31.659Z,6.20
2019-03-20T02:48:31.654Z,5.90
2019-03-20T02:49:31.639Z,5.60
2019-03-20T02:50:31.638Z,6.60
2019-03-20T02:51:31.652Z,6.10
2019-03-20T02:52:31.657Z,6.70
2019-03-20T02:53:31.594Z,5.80
2019-03-20T02:54:31.595Z,5.40
2019-03-20T02:55:31.582Z,5.50
2019-03-20T02:56:31.597Z,5.70
2019-03-20T02:57:31.561Z,5.50
2019-03-20T02:58:31.566Z,5.70
2019-03-20T02:59:31.542Z,5.60
2019-03-20T03:00:31.549Z,5.90
2019-03-20T03:01:31.515Z,6.00
2019-03-20T03:02:31.509Z,5.50
2019-03-20T03:03:31.547Z,5.50
2019-03-20T03:04:31.613Z,6.20
2019-03-20T03:05:31.474Z,5.60
2019-03-20T03:06:31.462Z,5.50
2019-03-20T03:07:31.454Z,5.90
2019-03-20T03:08:31.476Z,5.80
2019-03-20T03:09:31.437Z,6.00
2019-03-20T03:10:31.431Z,6.10
2019-03-20T03:11:31.421Z,5.70
2019-03-20T03:12:31.405Z,6.30
2019-03-20T03:13:31.396Z,6.20
2019-03-20T03:14:31.416Z,6.90
2019-03-20T03:15:31.388Z,6.60
2019-03-20T03:16:31.347Z,6.80
2019-03-20T03:17:31.355Z,7.20
2019-03-20T03:18:31.334Z,6.70
2019-03-20T03:19:31.323Z,7.00
2019-03-20T03:20:31.345Z,6.90
2019-03-20T03:21:31.309Z,8.00
2019-03-20T03:22:31.308Z,8.10
2019-03-20T03:23:31.276Z,8.00
2019-03-20T03:24:31.279Z,8.00
2019-03-20T03:25:31.256Z,7.90
2019-03-20T03:26:31.278Z,8.50
2019-03-20T03:27:31.239Z,8.20
2019-03-20T03:28:31.226Z,9.00
2019-03-20T03:29:31.213Z,8.80
2019-03-20T03:30:31.252Z,9.30
2019-03-20T03:31:31.211Z,9.30
2019-03-20T03:32:31.208Z,8.80
2019-03-20T03:33:31.202Z,9.40
2019-03-20T03:34:31.206Z,9.90
2019-03-20T03:35:31.158Z,9.80
2019-03-20T03:36:31.155Z,11.50
2019-03-20T03:37:31.130Z,10.80
2019-03-20T03:38:31.148Z,11.50
2019-03-20T03:39:31.118Z,12.00
2019-03-20T03:40:31.100Z,10.30
2019-03-20T03:41:31.088Z,10.40
2019-03-20T03:42:31.098Z,10.90
2019-03-20T03:43:31.108Z,11.00
2019-03-20T03:44:31.075Z,10.50
2019-03-20T03:45:31.056Z,10.40
2019-03-20T03:46:31.041Z,10.40
2019-03-20T03:47:31.044Z,10.50
2019-03-20T03:48:31.024Z,10.70
2019-03-20T03:49:31.031Z,11.60
2019-03-20T03:50:31.002Z,11.40
2019-03-20T03:51:30.997Z,10.70
2019-03-20T03:52:30.976Z,11.90
2019-03-20T03:53:30.980Z,11.00
2019-03-20T03:54:30.982Z,11.80
2019-03-20T03:55:30.948Z,11.80
2019-03-20T03:56:30.941Z,10.80
2019-03-20T03:57:30.934Z,11.30
2019-03-20T03:58:32.851Z,11.70
2019-03-20T03:59:30.912Z,11.50
2019-03-20T04:00:30.909Z,12.20
2019-03-20T04:01:30.903Z,11.50
2019-03-20T04:02:30.902Z,11.80
2019-03-20T04:03:30.872Z,12.60
2019-03-20T04:04:30.846Z,12.70
2019-03-20T04:05:30.862Z,12.80
2019-03-20T04:06:35.892Z,13.20
2019-03-20T04:07:31.844Z,13.70
2019-03-20T04:08:30.820Z,12.80
2019-03-20T04:09:30.811Z,13.30
2019-03-20T04:10:30.799Z,14.30
2019-03-20T04:11:30.801Z,13.00
2019-03-20T04:12:30.773Z,13.60
2019-03-20T04:13:30.760Z,14.00
2019-03-20T04:14:30.763Z,13.20
2019-03-20T04:15:30.755Z,13.60
2019-03-20T04:16:30.733Z,13.30
2019-03-20T04:17:30.745Z,13.80
2019-03-20T04:18:30.729Z,14.20
2019-03-20T04:19:30.708Z,13.70
2019-03-20T04:20:30.690Z,14.60
2019-03-20T04:21:30.681Z,14.40
2019-03-20T04:22:30.667Z,14.60
2019-03-20T04:23:30.671Z,15.40
2019-03-20T04:24:30.650Z,15.20
2019-03-20T04:25:30.641Z,15.40
2019-03-20T04:26:30.632Z,15.00
2019-03-20T04:27:30.616Z,16.00
2019-03-20T04:28:30.606Z,15.90
2019-03-20T04:29:30.647Z,16.50
2019-03-20T04:30:30.577Z,17.40
2019-03-20T04:31:30.566Z,16.70
2019-03-20T04:32:30.581Z,17.10
2019-03-20T04:33:30.544Z,16.30
2019-03-20T04:34:30.546Z,17.40
2019-03-20T04:35:30.551Z,16.70
2019-03-20T04:36:30.519Z,17.10
2019-03-20T04:37:30.507Z,17.60
2019-03-20T04:38:30.556Z,18.00
2019-03-20T04:39:30.490Z,18.80
2019-03-20T04:40:30.476Z,18.10
2019-03-20T04:41:30.488Z,19.30
2019-03-20T04:42:30.453Z,19.40
2019-03-20T04:43:30.460Z,18.50
2019-03-20T04:44:30.457Z,19.60
2019-03-20T04:45:30.453Z,18.60
2019-03-20T04:46:30.411Z,18.30
2019-03-20T04:47:30.425Z,18.10
2019-03-20T04:48:30.395Z,17.90
2019-03-20T04:49:30.402Z,19.00
2019-03-20T04:50:30.403Z,18.30
2019-03-20T04:51:30.356Z,19.00
2019-03-20T04:52:30.350Z,19.30
2019-03-20T04:53:30.373Z,18.60
2019-03-20T04:54:30.336Z,19.90
2019-03-20T04:55:30.336Z,18.60
2019-03-20T04:56:30.304Z,19.00
2019-03-20T04:57:30.301Z,19.50
2019-03-20T04:58:30.324Z,19.90
2019-03-20T04:59:30.277Z,19.40
2019-03-20T05:00:30.275Z,20.20
2019-03-20T05:01:30.284Z,20.00
2019-03-20T05:02:30.259Z,20.20
2019-03-20T05:03:30.238Z,20.70
2019-03-20T05:04:30.248Z,20.80
2019-03-20T05:05:30.221Z,20.80
2019-03-20T05:06:30.199Z,20.30
2019-03-20T05:07:30.202Z,21.00
2019-03-20T05:08:30.201Z,21.20
2019-03-20T05:09:30.175Z,21.60
2019-03-20T05:10:30.174Z,20.80
2019-03-20T05:11:30.162Z,21.10
2019-03-20T05:12:30.145Z,21.00
2019-03-20T05:13:30.132Z,21.70
2019-03-20T05:14:30.128Z,21.50
2019-03-20T05:15:30.146Z,22.20
2019-03-20T05:16:30.104Z,22.80
2019-03-20T05:17:30.113Z,22.30
2019-03-20T05:18:30.074Z,23.40
2019-03-20T05:19:30.097Z,22.90
2019-03-20T05:20:30.067Z,22.50
2019-03-20T05:21:30.088Z,22.00
2019-03-20T05:22:30.039Z,22.90
2019-03-20T05:23:30.025Z,23.30
2019-03-20T05:24:30.010Z,21.80
2019-03-20T05:25:30.052Z,22.70
2019-03-20T05:26:30.004Z,23.30
2019-03-20T05:27:29.986Z,22.70
2019-03-20T05:28:29.981Z,23.70
2019-03-20T05:29:30.037Z,24.40
2019-03-20T05:30:29.950Z,23.40
2019-03-20T05:31:29.960Z,23.60
2019-03-20T05:32:29.948Z,24.30
2019-03-20T05:33:29.963Z,23.80
2019-03-20T05:34:29.934Z,24.90
2019-03-20T05:35:29.897Z,24.90
2019-03-20T05:36:29.892Z,24.00
2019-03-20T05:37:29.952Z,25.60
2019-03-20T05:38:29.906Z,25.30
2019-03-20T05:39:29.865Z,25.30
2019-03-20T05:40:29.858Z,26.30
2019-03-20T05:41:29.873Z,24.80
2019-03-20T05:42:29.830Z,25.00
2019-03-20T05:43:29.871Z,25.80
2019-03-20T05:44:29.804Z,24.60
2019-03-20T05:45:29.794Z,26.10
2019-03-20T05:46:29.816Z,25.70
2019-03-20T05:47:29.776Z,25.40
2019-03-20T05:48:29.793Z,26.70
2019-03-20T05:49:29.759Z,25.70
2019-03-20T05:50:29.761Z,26.60
2019-03-20T05:51:29.744Z,26.60
2019-03-20T05:52:29.718Z,26.20
2019-03-20T05:53:29.718Z,26.10
2019-03-20T05:54:29.746Z,27.00
2019-03-20T05:55:29.705Z,26.10
2019-03-20T05:56:29.698Z,26.00
2019-03-20T05:57:29.683Z,25.60
2019-03-20T05:58:29.672Z,25.70
2019-03-20T05:59:29.655Z,27.00
2019-03-20T06:00:29.685Z,28.60
2019-03-20T06:01:29.671Z,27.80
2019-03-20T06:02:29.645Z,27.30
2019-03-20T06:03:29.617Z,28.70
2019-03-20T06:04:29.643Z,27.50
2019-03-20T06:05:29.589Z,27.70
2019-03-20T06:06:29.599Z,26.90
2019-03-20T06:07:29.571Z,27.90
2019-03-20T06:08:31.290Z,26.60
2019-03-20T06:09:29.543Z,27.00
2019-03-20T06:10:29.547Z,27.70
2019-03-20T06:11:29.524Z,27.00
2019-03-20T06:12:29.530Z,26.70
2019-03-20T06:13:29.510Z,27.90
2019-03-20T06:14:29.507Z,27.70
2019-03-20T06:15:29.496Z,26.20
2019-03-20T06:16:29.477Z,27.00
2019-03-20T06:17:29.518Z,27.10
2019-03-20T06:18:29.460Z,27.20
2019-03-20T06:19:29.452Z,26.70
2019-03-20T06:20:29.448Z,27.90
2019-03-20T06:21:29.444Z,26.30
2019-03-20T06:22:29.425Z,28.40
2019-03-20T06:23:29.453Z,26.70
2019-03-20T06:24:29.409Z,26.60
2019-03-20T06:25:29.381Z,27.10
2019-03-20T06:26:29.380Z,27.40
2019-03-20T06:27:29.371Z,28.00
2019-03-20T06:28:29.349Z,27.90
2019-03-20T06:29:29.368Z,28.20
2019-03-20T06:30:29.328Z,27.40
2019-03-20T06:31:29.330Z,27.10
2019-03-20T06:32:29.325Z,27.60
2019-03-20T06:33:29.299Z,28.00
2019-03-20T06:34:29.296Z,27.60
2019-03-20T06:35:29.295Z,27.90
2019-03-20T06:36:29.271Z,27.40
2019-03-20T06:37:32.733Z,28.20
2019-03-20T06:38:29.269Z,27.20
2019-03-20T06:39:29.233Z,27.80
2019-03-20T06:40:29.316Z,27.70
2019-03-20T06:41:29.227Z,27.20
2019-03-20T06:42:29.201Z,28.40
2019-03-20T06:43:29.243Z,28.00
2019-03-20T06:44:29.204Z,28.10
2019-03-20T06:45:29.175Z,28.50
2019-03-20T06:46:29.185Z,28.60
2019-03-20T06:47:29.164Z,29.10
2019-03-20T06:48:29.165Z,28.00
2019-03-20T06:49:29.137Z,29.50
2019-03-20T06:50:29.143Z,29.60
2019-03-20T06:51:29.115Z,29.70
2019-03-20T06:52:29.102Z,29.10
2019-03-20T06:53:29.088Z,29.20
2019-03-20T06:54:29.101Z,28.40
2019-03-20T06:55:29.104Z,29.10
2019-03-20T06:56:29.120Z,28.40
2019-03-20T06:57:29.047Z,30.20
2019-03-20T06:58:29.031Z,28.50
2019-03-20T06:59:29.046Z,30.00
2019-03-20T07:00:29.015Z,29.70
2019-03-20T07:01:29.021Z,30.40
2019-03-20T07:02:28.988Z,30.40
2019-03-20T07:03:28.987Z,30.00
2019-03-20T07:04:28.975Z,29.90
2019-03-20T07:05:28.961Z,29.70
2019-03-20T07:06:28.984Z,29.50
2019-03-20T07:07:28.945Z,30.10
2019-03-20T07:08:28.927Z,29.60
2019-03-20T07:09:28.918Z,28.90
2019-03-20T07:10:28.925Z,31.40
2019-03-20T07:11:28.918Z,31.00
2019-03-20T07:12:28.924Z,29.60
2019-03-20T07:13:28.884Z,29.70
2019-03-20T07:14:28.877Z,29.30
2019-03-20T07:15:28.859Z,30.60
2019-03-20T07:16:28.859Z,30.90
2019-03-20T07:17:28.877Z,29.50
2019-03-20T07:18:28.831Z,31.00
2019-03-20T07:19:28.819Z,31.40
2019-03-20T07:20:28.846Z,31.20
2019-03-20T07:21:28.791Z,30.70
2019-03-20T07:22:28.787Z,31.10
2019-03-20T07:23:28.812Z,31.70
2019-03-20T07:24:28.760Z,31.00
2019-03-20T07:25:28.751Z,31.30
2019-03-20T07:26:28.834Z,30.50
2019-03-20T07:27:28.731Z,31.70
2019-03-20T07:28:28.739Z,31.80
2019-03-20T07:29:28.704Z,32.80
2019-03-20T07:30:28.696Z,31.90
2019-03-20T07:31:28.686Z,32.10
2019-03-20T07:32:30.089Z,31.40
2019-03-20T07:33:28.699Z,32.00
2019-03-20T07:34:28.679Z,32.50
2019-03-20T07:35:28.647Z,33.90
2019-03-20T07:36:28.626Z,32.70
2019-03-20T07:37:28.648Z,33.20
2019-03-20T07:38:28.620Z,32.80
2019-03-20T07:39:28.632Z,33.60
2019-03-20T07:40:28.593Z,33.10
2019-03-20T07:41:28.581Z,33.10
2019-03-20T07:42:28.585Z,33.00
2019-03-20T07:43:28.608Z,32.60
2019-03-20T07:44:28.560Z,33.80
2019-03-20T07:45:28.547Z,33.80
2019-03-20T07:46:28.527Z,34.90
2019-03-20T07:47:28.516Z,32.90
2019-03-20T07:48:28.512Z,34.40
2019-03-20T07:49:28.515Z,34.30
2019-03-20T07:50:28.473Z,33.30
2019-03-20T07:51:28.476Z,33.20
2019-03-20T07:52:28.523Z,32.80
2019-03-20T07:53:28.487Z,35.10
2019-03-20T07:54:28.469Z,34.90
2019-03-20T07:55:28.467Z,33.80
2019-03-20T07:56:28.429Z,34.40
2019-03-20T07:57:28.443Z,34.00
2019-03-20T07:58:28.401Z,34.60
2019-03-20T07:59:28.394Z,34.70
2019-03-20T08:00:28.393Z,36.10
2019-03-20T08:01:28.371Z,36.40
2019-03-20T08:02:28.352Z,37.00
2019-03-20T08:03:28.342Z,36.70
2019-03-20T08:04:28.327Z,36.40
2019-03-20T08:05:29.407Z,37.00
2019-03-20T08:06:28.332Z,34.60
2019-03-20T08:07:28.286Z,35.20
2019-03-20T08:08:28.402Z,36.10
2019-03-20T08:09:28.309Z,35.40
2019-03-20T08:10:28.252Z,36.90
2019-03-20T08:11:28.258Z,35.80
2019-03-20T08:12:28.263Z,36.30
2019-03-20T08:13:28.224Z,35.20
2019-03-20T08:14:28.215Z,36.60
2019-03-20T08:15:28.217Z,35.60
2019-03-20T08:16:28.204Z,37.00
2019-03-20T08:17:28.222Z,36.40
2019-03-20T08:18:28.190Z,36.40
2019-03-20T08:19:28.156Z,35.40
2019-03-20T08:20:28.145Z,35.70
2019-03-20T08:21:28.173Z,36.80
2019-03-20T08:22:28.146Z,37.50
2019-03-20T08:23:28.225Z,37.00
2019-03-20T08:24:28.118Z,36.80
2019-03-20T08:25:28.136Z,36.10
2019-03-20T08:26:28.085Z,36.50
2019-03-20T08:27:28.094Z,35.70
2019-03-20T08:28:28.071Z,36.90
2019-03-20T08:29:28.076Z,36.60
2019-03-20T08:30:28.045Z,36.10
2019-03-20T08:31:28.025Z,36.50
2019-03-20T08:32:28.046Z,36.90
2019-03-20T08:33:28.027Z,36.20
2019-03-20T08:34:28.006Z,36.50
2019-03-20T08:35:28.023Z,35.90
2019-03-20T08:36:27.978Z,36.00
2019-03-20T08:37:27.989Z,36.40
2019-03-20T08:38:27.964Z,35.70
2019-03-20T08:39:27.949Z,36.90
2019-03-20T08:40:27.936Z,35.10
2019-03-20T08:41:27.960Z,35.70
2019-03-20T08:42:27.912Z,36.20
2019-03-20T08:43:27.892Z,35.50
2019-03-20T08:44:27.929Z,35.90
2019-03-20T08:45:27.895Z,35.90
2019-03-20T08:46:27.900Z,35.70
2019-03-20T08:47:27.916Z,35.40
2019-03-20T08:48:27.854Z,34.80
2019-03-20T08:49:27.821Z,35.60
2019-03-20T08:50:27.860Z,35.30
2019-03-20T08:51:27.810Z,36.00
2019-03-20T08:52:27.791Z,36.60
2019-03-20T08:53:27.824Z,36.00
2019-03-20T08:54:27.808Z,34.00
2019-03-20T08:55:27.768Z,36.50
2019-03-20T08:56:27.769Z,34.80
2019-03-20T08:57:27.736Z,35.80
2019-03-20T08:58:27.749Z,35.40
2019-03-20T08:59:27.793Z,36.30
2019-03-20T09:00:27.708Z,34.90
2019-03-20T09:01:28.933Z,36.50
2019-03-20T09:02:27.705Z,34.40
2019-03-20T09:03:27.675Z,34.90
2019-03-20T09:04:27.675Z,36.20
2019-03-20T09:05:27.736Z,35.20
2019-03-20T09:06:27.630Z,35.60
2019-03-20T09:07:27.665Z,33.20
2019-03-20T09:08:29.694Z,35.20
2019-03-20T09:09:27.602Z,35.00
2019-03-20T09:10:27.657Z,33.40
2019-03-20T09:11:27.591Z,34.00
2019-03-20T09:12:27.574Z,35.50
2019-03-20T09:13:28.256Z,34.10
2019-03-20T09:14:27.616Z,35.00
2019-03-20T09:15:27.539Z,36.80
2019-03-20T09:16:27.554Z,34.50
2019-03-20T09:17:27.531Z,34.30
2019-03-20T09:18:27.564Z,33.80
2019-03-20T09:19:27.519Z,34.50
2019-03-20T09:20:27.489Z,35.30
2019-03-20T09:21:27.492Z,32.80
2019-03-20T09:22:27.477Z,34.50
2019-03-20T09:23:27.466Z,34.00
2019-03-20T09:24:27.482Z,34.00
2019-03-20T09:25:27.446Z,33.70
2019-03-20T09:26:27.449Z,32.40
2019-03-20T09:27:27.409Z,32.80
2019-03-20T09:28:27.395Z,33.60
2019-03-20T09:29:35.568Z,33.10
2019-03-20T09:30:28.374Z,32.60
2019-03-20T09:31:27.387Z,31.20
2019-03-20T09:32:27.363Z,32.40
2019-03-20T09:33:27.341Z,33.00
2019-03-20T09:34:27.405Z,31.40
2019-03-20T09:35:27.341Z,32.20
2019-03-20T09:36:27.368Z,31.20
2019-03-20T09:37:27.337Z,32.60
2019-03-20T09:38:27.292Z,31.70
2019-03-20T09:39:27.281Z,31.40
2019-03-20T09:40:27.282Z,32.00
2019-03-20T09:41:27.295Z,30.80
2019-03-20T09:42:27.263Z,32.60
2019-03-20T09:43:27.802Z,31.50
2019-03-20T09:44:27.224Z,31.70
2019-03-20T09:45:27.214Z,31.90
2019-03-20T09:46:27.274Z,33.10
2019-03-20T09:47:27.252Z,31.90
2019-03-20T09:48:27.225Z,31.90
2019-03-20T09:49:27.225Z,32.10
2019-03-20T09:50:27.158Z,31.50
2019-03-20T09:51:27.198Z,32.40
2019-03-20T09:52:27.158Z,32.00
2019-03-20T09:53:27.152Z,30.70
2019-03-20T09:54:27.137Z,31.00
2019-03-20T09:55:27.157Z,31.40
2019-03-20T09:56:27.096Z,32.10
2019-03-20T09:57:27.083Z,30.70
2019-03-20T09:58:27.102Z,31.60
2019-03-20T09:59:27.064Z,30.60
2019-03-20T10:00:27.103Z,31.20
2019-03-20T10:01:27.174Z,31.60
2019-03-20T10:02:27.028Z,31.60
2019-03-20T10:03:27.021Z,31.40
2019-03-20T10:04:27.017Z,31.80
2019-03-20T10:05:27.014Z,33.10
2019-03-20T10:06:27.017Z,31.70
2019-03-20T10:07:27.026Z,32.70
2019-03-20T10:08:27.022Z,33.60
2019-03-20T10:09:26.982Z,32.90
2019-03-20T10:10:26.958Z,33.30
2019-03-20T10:11:26.936Z,33.50
2019-03-20T10:12:26.942Z,34.30
2019-03-20T10:13:26.914Z,33.70
2019-03-20T10:14:26.906Z,34.30
2019-03-20T10:15:26.892Z,34.40
2019-03-20T10:16:26.875Z,34.30
2019-03-20T10:17:26.907Z,33.50
2019-03-20T10:18:26.860Z,33.50
2019-03-20T10:19:26.967Z,33.50
2019-03-20T10:20:26.836Z,34.30
2019-03-20T10:21:26.851Z,33.20
2019-03-20T10:22:26.822Z,32.60
2019-03-20T10:23:26.842Z,32.30
2019-03-20T10:24:26.871Z,31.50
2019-03-20T10:25:26.780Z,32.00
2019-03-20T10:26:26.766Z,33.00
2019-03-20T10:27:26.762Z,32.70
2019-03-20T10:28:26.751Z,32.10
2019-03-20T10:29:26.777Z,33.30
2019-03-20T10:30:26.732Z,32.00
2019-03-20T10:31:26.720Z,31.80
2019-03-20T10:32:26.707Z,33.00
2019-03-20T10:33:26.704Z,32.50
2019-03-20T10:34:26.697Z,32.80
2019-03-20T10:35:26.759Z,32.80
2019-03-20T10:36:26.667Z,31.40
2019-03-20T10:37:26.655Z,31.10
2019-03-20T10:38:26.639Z,30.60
2019-03-20T10:39:26.637Z,32.60
2019-03-20T10:40:26.668Z,33.10
2019-03-20T10:41:26.626Z,31.60
2019-03-20T10:42:26.638Z,32.20
2019-03-20T10:43:26.597Z,32.00
2019-03-20T10:44:26.588Z,32.50
2019-03-20T10:45:26.563Z,32.80
2019-03-20T10:46:26.597Z,32.40
2019-03-20T10:47:26.573Z,33.10
2019-03-20T10:48:26.578Z,33.30
2019-03-20T10:49:26.527Z,33.70
2019-03-20T10:50:26.526Z,33.10
2019-03-20T10:51:26.522Z,32.70
2019-03-20T10:52:26.501Z,31.70
2019-03-20T10:53:26.482Z,31.90
2019-03-20T10:54:26.517Z,33.30
2019-03-20T10:55:26.464Z,31.80
2019-03-20T10:56:26.475Z,31.10
2019-03-20T10:57:26.445Z,33.70
2019-03-20T10:58:26.521Z,32.40
2019-03-20T10:59:26.425Z,32.10
2019-03-20T11:00:26.409Z,32.30
2019-03-20T11:01:26.411Z,33.00
2019-03-20T11:02:26.412Z,33.20
2019-03-20T11:03:26.455Z,33.30
2019-03-20T11:04:26.372Z,33.40
2019-03-20T11:05:26.356Z,34.10
2019-03-20T11:06:26.347Z,33.80
2019-03-20T11:07:27.269Z,33.70
2019-03-20T11:08:26.351Z,33.00
2019-03-20T11:09:26.318Z,33.60
2019-03-20T11:10:26.324Z,33.10
2019-03-20T11:11:27.198Z,33.70
2019-03-20T11:12:26.293Z,34.50
2019-03-20T11:13:26.270Z,34.20
2019-03-20T11:14:26.313Z,34.00
2019-03-20T11:15:26.280Z,35.60
2019-03-20T11:16:26.254Z,34.90
2019-03-20T11:17:26.226Z,35.10
2019-03-20T11:18:26.230Z,34.60
2019-03-20T11:19:26.224Z,34.50
2019-03-20T11:20:26.214Z,33.70
2019-03-20T11:21:26.185Z,35.30
2019-03-20T11:22:26.168Z,35.40
2019-03-20T11:23:26.169Z,35.20
2019-03-20T11:24:26.158Z,35.70
2019-03-20T11:25:26.142Z,35.20
2019-03-20T11:26:26.143Z,34.00
2019-03-20T11:27:27.494Z,35.10
2019-03-20T11:28:26.111Z,35.30
2019-03-20T11:29:26.110Z,35.10
2019-03-20T11:30:26.115Z,35.40
2019-03-20T11:31:26.093Z,34.40
2019-03-20T11:32:26.064Z,34.60
2019-03-20T11:33:26.080Z,34.30
2019-03-20T11:34:26.046Z,34.00
2019-03-20T11:35:26.040Z,34.10
2019-03-20T11:36:26.055Z,35.10
2019-03-20T11:37:26.045Z,35.20
2019-03-20T11:38:26.170Z,34.10
2019-03-20T11:39:29.916Z,35.20
2019-03-20T11:40:26.047Z,34.00
2019-03-20T11:41:25.967Z,34.20
2019-03-20T11:42:25.990Z,35.20
2019-03-20T11:43:25.962Z,35.20
2019-03-20T11:44:25.931Z,35.00
2019-03-20T11:45:25.923Z,34.90
2019-03-20T11:46:25.920Z,34.80
2019-03-20T11:47:25.914Z,33.70
2019-03-20T11:48:25.937Z,34.60
2019-03-20T11:49:25.883Z,33.30
2019-03-20T11:50:25.874Z,35.40
2019-03-20T11:51:25.867Z,34.70
2019-03-20T11:52:25.892Z,34.90
2019-03-20T11:53:25.839Z,34.50
2019-03-20T11:54:25.856Z,34.00
2019-03-20T11:55:25.823Z,35.50
2019-03-20T11:56:25.979Z,32.80
2019-03-20T11:57:25.816Z,35.00
2019-03-20T11:58:25.778Z,34.60
2019-03-20T11:59:25.769Z,35.40
2019-03-20T12:00:25.793Z,34.10
2019-03-20T12:01:25.765Z,34.50
2019-03-20T12:02:28.389Z,34.00
2019-03-20T12:03:25.784Z,35.10
2019-03-20T12:04:25.761Z,34.40
2019-03-20T12:05:25.716Z,35.30
2019-03-20T12:06:25.701Z,34.40
2019-03-20T12:07:25.680Z,36.20
2019-03-20T12:08:25.688Z,34.10
2019-03-20T12:09:25.667Z,34.40
2019-03-20T12:10:25.692Z,35.10
2019-03-20T12:11:25.645Z,34.70
2019-03-20T12:12:25.641Z,35.20
2019-03-20T12:13:25.619Z,34.20
2019-03-20T12:14:25.614Z,35.00
2019-03-20T12:15:25.600Z,34.50
2019-03-20T12:16:25.627Z,35.00
2019-03-20T12:17:25.595Z,35.00
2019-03-20T12:18:25.591Z,35.10
2019-03-20T12:19:25.559Z,35.30
2019-03-20T12:20:25.551Z,34.40
2019-03-20T12:21:25.531Z,35.60
2019-03-20T12:22:25.533Z,36.00
2019-03-20T12:23:25.509Z,36.20
2019-03-20T12:24:25.514Z,34.50
2019-03-20T12:25:25.531Z,36.70
2019-03-20T12:26:25.501Z,35.20
2019-03-20T12:27:25.504Z,35.60
2019-03-20T12:28:25.529Z,37.10
2019-03-20T12:29:25.553Z,36.30
2019-03-20T12:30:25.433Z,35.40
2019-03-20T12:31:25.499Z,35.60
2019-03-20T12:32:25.486Z,35.70
2019-03-20T12:33:25.399Z,36.80
2019-03-20T12:34:25.460Z,35.60
2019-03-20T12:35:25.407Z,37.10
2019-03-20T12:36:25.412Z,36.90
2019-03-20T12:37:25.390Z,36.60
2019-03-20T12:38:25.423Z,36.00
2019-03-20T12:39:25.338Z,35.90
2019-03-20T12:40:25.335Z,36.10
2019-03-20T12:41:25.343Z,36.30
2019-03-20T12:42:25.322Z,35.10
2019-03-20T12:43:25.310Z,36.60
2019-03-20T12:44:25.342Z,36.60
2019-03-20T12:45:25.276Z,36.30
2019-03-20T12:46:25.280Z,35.90
2019-03-20T12:47:25.265Z,35.40
2019-03-20T12:48:25.273Z,36.20
2019-03-20T12:49:25.258Z,35.20
2019-03-20T12:50:25.281Z,35.30
2019-03-20T12:51:25.211Z,36.40
2019-03-20T12:52:25.232Z,36.40
2019-03-20T12:53:25.217Z,36.40
2019-03-20T12:54:25.188Z,36.20
2019-03-20T12:55:25.174Z,37.30
2019-03-20T12:56:25.207Z,36.40
2019-03-20T12:57:25.150Z,36.40
2019-03-20T12:58:25.352Z,36.60
2019-03-20T12:59:25.124Z,36.00
2019-03-20T13:00:27.285Z,36.50
2019-03-20T13:01:25.095Z,37.20
2019-03-20T13:02:25.110Z,36.30
2019-03-20T13:03:25.083Z,37.10
2019-03-20T13:04:25.074Z,36.50
2019-03-20T13:05:25.059Z,36.90
2019-03-20T13:06:25.083Z,37.60
2019-03-20T13:07:25.044Z,38.10
2019-03-20T13:08:25.031Z,39.00
2019-03-20T13:09:25.030Z,38.00
2019-03-20T13:10:25.012Z,38.50
2019-03-20T13:11:24.997Z,37.40
2019-03-20T13:12:25.018Z,38.30